KCLS/CLS METAR and TAF weather

Enter ICAO airport designator
Station Type Date Time Source
KCLS METAR 2018/04/21 13:15 UTC NOAA

KCLS 211315Z AUTO 00000KT 10SM SCT041 BKN047 BKN055 07/06 A3035 RMK AO2


Station Type Date Time Source
KCLS Decoded METAR 2018/04/21 13:15 UTC NOAA

Station name not available
Apr 21, 2018 - 09:15 AM EDT / 2018.04.21 1315 UTC
Wind: Calm:0
Visibility: 10 mile(s):0
Sky conditions: mostly cloudy
Temperature: 44 F (7 C)
Dew Point: 42 F (6 C)
Relative Humidity: 93%
Pressure (altimeter): 30.35 in. Hg (1027 hPa)
ob: KCLS 211315Z AUTO 00000KT 10SM SCT041 BKN047 BKN055 07/06 A3035 RMK AO2
cycle: 13

Station Type Date Time Source
KCLS TAF UTC NOAA

Error!


Example: see airport list